Time;durP1;ratioP1;P1;durP2;ratioP2;P2;SDS_P1;SDS_P2;PMS_P1;PMS_P2;Temp;Humidity;BMP_temperature;BMP_pressure;BME280_temperature;BME280_humidity;BME280_pressure;Samples;Min_cycle;Max_cycle;Signal;HPM_P1;HPM_P2
2024/03/21 00:00:20;;;;;;;0.10;0.10;;;;;;;;;;5018937;28;20154;-91
2024/03/21 00:02:46;;;;;;;0.10;0.10;;;;;;;;;;5002682;28;20064;-92
2024/03/21 00:05:13;;;;;;;0.10;0.10;;;;;;;;;;5002391;28;20045;-92
2024/03/21 00:07:39;;;;;;;0.10;0.10;;;;;;;;;;5034889;28;20048;-92
2024/03/21 00:10:05;;;;;;;0.10;0.10;;;;;;;;;;5018775;28;20044;-93
2024/03/21 00:12:31;;;;;;;0.10;0.10;;;;;;;;;;5002400;28;20033;-92
2024/03/21 00:14:57;;;;;;;0.13;0.13;;;;;;;;;;5021103;28;20052;-92
2024/03/21 00:17:24;;;;;;;0.10;0.10;;;;;;;;;;5022260;28;20045;-92
2024/03/21 00:19:50;;;;;;;0.10;0.10;;;;;;;;;;5022488;28;20041;-92
2024/03/21 00:22:16;;;;;;;0.10;0.10;;;;;;;;;;5022692;28;20033;-93
2024/03/21 00:24:42;;;;;;;0.10;0.10;;;;;;;;;;5022591;28;20493;-92
2024/03/21 00:27:08;;;;;;;0.10;0.10;;;;;;;;;;5038699;28;20076;-92
2024/03/21 00:29:34;;;;;;;0.10;0.10;;;;;;;;;;5005731;28;20033;-92
2024/03/21 00:32:00;;;;;;;0.10;0.10;;;;;;;;;;5022252;28;20510;-93
2024/03/21 00:34:27;;;;;;;0.10;0.10;;;;;;;;;;5022329;28;20045;-92
2024/03/21 00:36:53;;;;;;;0.10;0.10;;;;;;;;;;5022239;28;20051;-93
2024/03/21 00:39:19;;;;;;;0.10;0.10;;;;;;;;;;5022259;28;20037;-94
2024/03/21 00:41:48;;;;;;;0.10;0.10;;;;;;;;;;5005992;28;20447;-92
2024/03/21 00:44:15;;;;;;;0.10;0.10;;;;;;;;;;5005720;28;20048;-92
2024/03/21 00:46:41;;;;;;;0.10;0.10;;;;;;;;;;5022313;28;20072;-93
2024/03/21 00:49:08;;;;;;;0.10;0.10;;;;;;;;;;5005830;28;20055;-93
2024/03/21 00:51:34;;;;;;;0.10;0.10;;;;;;;;;;5007538;28;20041;-91
2024/03/21 00:54:00;;;;;;;0.10;0.10;;;;;;;;;;5006716;28;20049;-93
2024/03/21 00:56:26;;;;;;;0.20;0.20;;;;;;;;;;5005961;28;20041;-92
2024/03/21 00:58:57;;;;;;;0.10;0.10;;;;;;;;;;5038293;28;20041;-92
2024/03/21 01:01:24;;;;;;;0.10;0.10;;;;;;;;;;5022513;28;20052;-93
2024/03/21 01:03:50;;;;;;;0.45;0.45;;;;;;;;;;5021839;28;20041;-93
2024/03/21 01:06:16;;;;;;;0.10;0.10;;;;;;;;;;5022208;28;20032;-94
2024/03/21 01:08:42;;;;;;;0.10;0.10;;;;;;;;;;5005517;28;20530;-93
2024/03/21 01:11:09;;;;;;;0.10;0.10;;;;;;;;;;5021792;28;20044;-93
2024/03/21 01:13:35;;;;;;;0.10;0.10;;;;;;;;;;5038223;28;20045;-93
2024/03/21 01:16:01;;;;;;;0.10;0.10;;;;;;;;;;5038225;28;20131;-92
2024/03/21 01:18:36;;;;;;;0.10;0.10;;;;;;;;;;5021946;28;20490;-94
2024/03/21 01:21:03;;;;;;;0.20;0.20;;;;;;;;;;5022951;28;20123;-93
2024/03/21 01:23:29;;;;;;;0.10;0.10;;;;;;;;;;5021648;28;20041;-93
2024/03/21 01:25:55;;;;;;;0.10;0.10;;;;;;;;;;5020665;28;20072;-93
2024/03/21 01:28:21;;;;;;;0.10;0.10;;;;;;;;;;5037946;28;20389;-93
2024/03/21 01:30:47;;;;;;;0.20;0.20;;;;;;;;;;5021313;28;20131;-93
2024/03/21 01:33:13;;;;;;;0.10;0.10;;;;;;;;;;5021569;28;20033;-93
2024/03/21 01:35:39;;;;;;;0.20;0.20;;;;;;;;;;5021268;28;20037;-92
2024/03/21 01:38:06;;;;;;;1.95;0.30;;;;;;;;;;5021301;28;20041;-91
2024/03/21 01:40:37;;;;;;;0.30;0.30;;;;;;;;;;5004417;28;20040;-92
2024/03/21 01:43:03;;;;;;;0.10;0.10;;;;;;;;;;5037507;28;20120;-92
2024/03/21 01:45:29;;;;;;;0.30;0.30;;;;;;;;;;5004669;28;20041;-92
2024/03/21 01:47:58;;;;;;;0.10;0.10;;;;;;;;;;5020697;28;20057;-91
2024/03/21 01:50:24;;;;;;;0.20;0.20;;;;;;;;;;5004820;28;20036;-93
2024/03/21 01:52:50;;;;;;;0.30;0.30;;;;;;;;;;5020686;28;20037;-91
2024/03/21 01:55:16;;;;;;;0.25;0.25;;;;;;;;;;5020685;28;20045;-91
2024/03/21 01:57:43;;;;;;;0.10;0.10;;;;;;;;;;5020327;28;20080;-91
2024/03/21 02:00:09;;;;;;;0.10;0.10;;;;;;;;;;5020508;28;20492;-92
2024/03/21 02:02:35;;;;;;;0.35;0.35;;;;;;;;;;5020484;28;20077;-92
2024/03/21 02:05:04;;;;;;;0.10;0.10;;;;;;;;;;5020173;28;20048;-91
2024/03/21 02:07:34;;;;;;;0.10;0.10;;;;;;;;;;5019571;28;20033;-89
2024/03/21 02:10:00;;;;;;;2.50;0.43;;;;;;;;;;5035580;28;20041;-89
2024/03/21 02:12:43;;;;;;;0.20;0.20;;;;;;;;;;5003069;28;20512;-87
2024/03/21 02:15:09;;;;;;;0.10;0.10;;;;;;;;;;5019258;28;20049;-89
2024/03/21 02:17:36;;;;;;;0.30;0.20;;;;;;;;;;5003050;28;20048;-88
2024/03/21 02:20:03;;;;;;;0.20;0.20;;;;;;;;;;5002691;28;20047;-90
2024/03/21 02:22:37;;;;;;;0.28;0.28;;;;;;;;;;5019149;28;20045;-89
2024/03/21 02:25:09;;;;;;;0.10;0.10;;;;;;;;;;5020095;28;20045;-89
2024/03/21 02:27:35;;;;;;;0.10;0.10;;;;;;;;;;5003051;28;20037;-89
2024/03/21 02:30:01;;;;;;;0.40;0.40;;;;;;;;;;5018889;28;20037;-89
2024/03/21 02:32:30;;;;;;;0.20;0.20;;;;;;;;;;5002357;28;20186;-89
2024/03/21 02:34:56;;;;;;;0.10;0.10;;;;;;;;;;5002815;28;20041;-89
2024/03/21 02:37:22;;;;;;;0.90;0.90;;;;;;;;;;5018587;28;20484;-89
2024/03/21 02:39:51;;;;;;;0.40;0.40;;;;;;;;;;5019047;28;20411;-89
2024/03/21 02:42:17;;;;;;;0.10;0.10;;;;;;;;;;5018467;28;20044;-89
2024/03/21 02:44:43;;;;;;;0.47;0.40;;;;;;;;;;5018734;28;20045;-88
2024/03/21 02:47:09;;;;;;;0.20;0.20;;;;;;;;;;5002137;28;20512;-89
2024/03/21 02:49:35;;;;;;;0.22;0.22;;;;;;;;;;5018662;28;20068;-88
2024/03/21 02:52:01;;;;;;;0.25;0.25;;;;;;;;;;5018864;28;20036;-89
2024/03/21 02:54:29;;;;;;;0.57;0.35;;;;;;;;;;5018741;28;20428;-89
2024/03/21 02:56:55;;;;;;;0.10;0.10;;;;;;;;;;5002762;28;20111;-90
2024/03/21 02:59:21;;;;;;;0.85;0.38;;;;;;;;;;5018769;28;20042;-90
2024/03/21 03:01:47;;;;;;;0.30;0.30;;;;;;;;;;5018376;28;20044;-89
2024/03/21 03:04:13;;;;;;;0.25;0.25;;;;;;;;;;5002230;28;20072;-90
2024/03/21 03:06:39;;;;;;;0.15;0.15;;;;;;;;;;5018633;28;20037;-89
2024/03/21 03:09:05;;;;;;;0.10;0.10;;;;;;;;;;5018648;28;20098;-89
2024/03/21 03:11:31;;;;;;;1.10;0.40;;;;;;;;;;5001681;28;20033;-90
2024/03/21 03:13:58;;;;;;;0.43;0.43;;;;;;;;;;5018424;28;20049;-90
2024/03/21 03:16:23;;;;;;;0.20;0.20;;;;;;;;;;5002045;28;20041;-89
2024/03/21 03:18:49;;;;;;;0.10;0.10;;;;;;;;;;5002190;28;20037;-89
2024/03/21 03:21:16;;;;;;;0.22;0.22;;;;;;;;;;5034326;28;20041;-89
2024/03/21 03:23:42;;;;;;;0.63;0.30;;;;;;;;;;5018156;28;20048;-89
2024/03/21 03:26:08;;;;;;;0.20;0.20;;;;;;;;;;5001611;28;20041;-89
2024/03/21 03:28:34;;;;;;;0.10;0.10;;;;;;;;;;5017963;28;20378;-89
2024/03/21 03:31:00;;;;;;;0.20;0.20;;;;;;;;;;5034112;28;20037;-89
2024/03/21 03:36:10;;;;;;;0.73;0.45;;;;;;;;;;5034351;28;20102;-88
2024/03/21 03:38:36;;;;;;;0.20;0.20;;;;;;;;;;5017942;28;20032;-90
2024/03/21 03:41:02;;;;;;;0.30;0.30;;;;;;;;;;5018078;28;20492;-89
2024/03/21 03:43:28;;;;;;;0.80;0.80;;;;;;;;;;5001453;28;20033;-89
2024/03/21 03:45:54;;;;;;;0.20;0.20;;;;;;;;;;5018072;28;20037;-90
2024/03/21 03:48:20;;;;;;;1.85;0.55;;;;;;;;;;5001598;28;20059;-89
2024/03/21 03:50:46;;;;;;;0.52;0.52;;;;;;;;;;5038382;28;20037;-89
2024/03/21 03:53:12;;;;;;;0.13;0.13;;;;;;;;;;5005749;28;20041;-90
2024/03/21 03:55:38;;;;;;;0.20;0.20;;;;;;;;;;5038781;28;20045;-90
2024/03/21 03:58:04;;;;;;;0.22;0.22;;;;;;;;;;5021825;28;20079;-90
2024/03/21 04:00:30;;;;;;;0.28;0.25;;;;;;;;;;5005679;28;20047;-89
2024/03/21 04:02:56;;;;;;;0.47;0.35;;;;;;;;;;5005578;28;20041;-89
2024/03/21 04:05:24;;;;;;;0.20;0.20;;;;;;;;;;5021625;28;20041;-90
2024/03/21 04:07:50;;;;;;;2.25;1.15;;;;;;;;;;5021866;28;20041;-90
2024/03/21 04:10:16;;;;;;;0.30;0.30;;;;;;;;;;5022117;28;20048;-91
2024/03/21 04:12:42;;;;;;;0.30;0.20;;;;;;;;;;5038316;28;20040;-91
2024/03/21 04:15:09;;;;;;;0.28;0.25;;;;;;;;;;5022168;28;20495;-91
2024/03/21 04:17:35;;;;;;;0.20;0.20;;;;;;;;;;5022118;28;20072;-92
2024/03/21 04:20:07;;;;;;;1.00;0.43;;;;;;;;;;5022016;28;20045;-92
2024/03/21 04:22:36;;;;;;;0.20;0.20;;;;;;;;;;5005948;28;20037;-93
2024/03/21 04:25:03;;;;;;;0.20;0.20;;;;;;;;;;5022143;28;20041;-92
2024/03/21 04:27:32;;;;;;;0.32;0.32;;;;;;;;;;5021865;28;20040;-91
2024/03/21 04:30:01;;;;;;;0.60;0.60;;;;;;;;;;5005929;28;20492;-92
2024/03/21 04:32:27;;;;;;;0.45;0.20;;;;;;;;;;5006593;28;20063;-91
2024/03/21 04:34:53;;;;;;;0.10;0.10;;;;;;;;;;5005229;28;20127;-90
2024/03/21 04:37:19;;;;;;;0.10;0.10;;;;;;;;;;5005255;28;20032;-90
2024/03/21 04:39:46;;;;;;;0.10;0.10;;;;;;;;;;5038004;28;20373;-88
2024/03/21 04:42:15;;;;;;;0.32;0.30;;;;;;;;;;5021437;28;20044;-90
2024/03/21 04:44:42;;;;;;;0.20;0.20;;;;;;;;;;5021554;28;20045;-90
2024/03/21 04:47:08;;;;;;;0.10;0.10;;;;;;;;;;5021071;28;20045;-91
2024/03/21 04:49:35;;;;;;;0.20;0.20;;;;;;;;;;5021432;28;20539;-89
2024/03/21 04:52:01;;;;;;;0.10;0.10;;;;;;;;;;5021388;28;20086;-91
2024/03/21 04:54:27;;;;;;;0.10;0.10;;;;;;;;;;5021591;28;20124;-91
2024/03/21 04:56:53;;;;;;;1.27;0.75;;;;;;;;;;5021515;28;20131;-91
2024/03/21 04:59:21;;;;;;;0.10;0.10;;;;;;;;;;5021390;28;20041;-92
2024/03/21 05:01:48;;;;;;;0.55;0.55;;;;;;;;;;5005625;28;20444;-91
2024/03/21 05:04:14;;;;;;;1.30;0.90;;;;;;;;;;5021090;28;20056;-91
2024/03/21 05:06:40;;;;;;;0.20;0.20;;;;;;;;;;5021193;28;20052;-91
2024/03/21 05:09:06;;;;;;;0.10;0.10;;;;;;;;;;5020702;28;20036;-89
2024/03/21 05:11:32;;;;;;;0.50;0.50;;;;;;;;;;5020705;28;20037;-90
2024/03/21 05:13:59;;;;;;;0.10;0.10;;;;;;;;;;5020680;28;20102;-90
2024/03/21 05:16:28;;;;;;;0.20;0.20;;;;;;;;;;5021039;28;20106;-92
2024/03/21 05:18:54;;;;;;;0.25;0.25;;;;;;;;;;5004758;28;20044;-91
2024/03/21 05:21:20;;;;;;;0.20;0.20;;;;;;;;;;5020403;28;20049;-89
2024/03/21 05:23:46;;;;;;;0.20;0.20;;;;;;;;;;5020585;28;20037;-90
2024/03/21 05:26:12;;;;;;;0.10;0.10;;;;;;;;;;5020405;28;20123;-90
2024/03/21 05:28:38;;;;;;;0.20;0.20;;;;;;;;;;5004750;28;20087;-91
2024/03/21 05:31:09;;;;;;;0.10;0.10;;;;;;;;;;5021153;28;20558;-92
2024/03/21 05:33:35;;;;;;;0.10;0.10;;;;;;;;;;5004687;28;20047;-91
2024/03/21 05:36:01;;;;;;;0.13;0.13;;;;;;;;;;5037425;28;20407;-91
2024/03/21 05:38:27;;;;;;;0.10;0.10;;;;;;;;;;5004891;28;20446;-92
2024/03/21 05:40:53;;;;;;;0.10;0.10;;;;;;;;;;5040849;28;20060;-91
2024/03/21 05:43:21;;;;;;;0.10;0.10;;;;;;;;;;5020990;28;20060;-91
2024/03/21 05:45:47;;;;;;;0.10;0.10;;;;;;;;;;5004512;28;20124;-92
2024/03/21 05:48:13;;;;;;;0.10;0.10;;;;;;;;;;5004628;28;20111;-92
2024/03/21 05:50:39;;;;;;;0.10;0.10;;;;;;;;;;5020826;28;20041;-92
2024/03/21 05:53:04;;;;;;;0.10;0.10;;;;;;;;;;5006735;28;20047;-90
2024/03/21 05:55:30;;;;;;;0.10;0.10;;;;;;;;;;5020443;28;20059;-92
2024/03/21 05:57:59;;;;;;;0.10;0.10;;;;;;;;;;5020158;28;20536;-91
2024/03/21 06:00:25;;;;;;;0.20;0.20;;;;;;;;;;5003626;28;20041;-90
2024/03/21 06:02:51;;;;;;;0.10;0.10;;;;;;;;;;5036521;28;20040;-91
2024/03/21 06:05:18;;;;;;;0.15;0.15;;;;;;;;;;5019915;28;20405;-91
2024/03/21 06:07:44;;;;;;;0.10;0.10;;;;;;;;;;5020078;28;20048;-92
2024/03/21 06:10:10;;;;;;;0.10;0.10;;;;;;;;;;5037108;28;20377;-92
2024/03/21 06:12:36;;;;;;;0.10;0.10;;;;;;;;;;5036135;28;20055;-91
2024/03/21 06:15:02;;;;;;;0.20;0.20;;;;;;;;;;5020683;28;20067;-94
2024/03/21 06:17:28;;;;;;;0.10;0.10;;;;;;;;;;5021136;28;20123;-94
2024/03/21 06:19:54;;;;;;;0.47;0.40;;;;;;;;;;5020684;28;20041;-94
2024/03/21 06:22:20;;;;;;;0.20;0.20;;;;;;;;;;5020854;28;20044;-94
2024/03/21 06:24:46;;;;;;;0.20;0.20;;;;;;;;;;5037379;28;20102;-92
2024/03/21 06:27:12;;;;;;;0.10;0.10;;;;;;;;;;5037236;28;20045;-92
2024/03/21 06:29:39;;;;;;;0.10;0.10;;;;;;;;;;5004552;28;20041;-92
2024/03/21 06:32:05;;;;;;;1.85;0.47;;;;;;;;;;5004349;28;20393;-95
2024/03/21 06:34:32;;;;;;;0.10;0.10;;;;;;;;;;5037039;28;20431;-94
2024/03/21 06:36:58;;;;;;;0.10;0.10;;;;;;;;;;5020954;28;20396;-95
2024/03/21 06:39:24;;;;;;;0.10;0.10;;;;;;;;;;5020075;28;20499;-94
2024/03/21 06:41:50;;;;;;;0.20;0.20;;;;;;;;;;5036885;28;20554;-94
2024/03/21 06:44:16;;;;;;;0.10;0.10;;;;;;;;;;5004332;28;20460;-93
2024/03/21 06:46:42;;;;;;;0.20;0.20;;;;;;;;;;5022303;28;20041;-92
2024/03/21 06:49:08;;;;;;;0.10;0.10;;;;;;;;;;5020406;28;20057;-93
2024/03/21 06:51:34;;;;;;;0.20;0.20;;;;;;;;;;5020266;28;20043;-92
2024/03/21 06:54:00;;;;;;;0.10;0.10;;;;;;;;;;5019726;28;20087;-94
2024/03/21 06:56:26;;;;;;;0.10;0.10;;;;;;;;;;5019957;28;20040;-88
2024/03/21 06:58:52;;;;;;;0.10;0.10;;;;;;;;;;5018374;28;20095;-87
2024/03/21 07:01:19;;;;;;;0.10;0.10;;;;;;;;;;5018044;28;20045;-87
2024/03/21 07:03:45;;;;;;;0.10;0.10;;;;;;;;;;5001775;28;20044;-87
2024/03/21 07:06:12;;;;;;;0.10;0.10;;;;;;;;;;5034785;28;20110;-87
2024/03/21 07:08:40;;;;;;;0.10;0.10;;;;;;;;;;5018050;28;20041;-86
2024/03/21 07:11:07;;;;;;;0.10;0.10;;;;;;;;;;5033309;28;20390;-87
2024/03/21 07:13:34;;;;;;;0.10;0.10;;;;;;;;;;5017371;28;20425;-87
2024/03/21 07:16:00;;;;;;;0.10;0.10;;;;;;;;;;5017811;28;20083;-87
2024/03/21 07:18:26;;;;;;;0.10;0.10;;;;;;;;;;5018079;28;20040;-86
2024/03/21 07:20:55;;;;;;;0.10;0.10;;;;;;;;;;5018110;28;20044;-87
2024/03/21 07:23:21;;;;;;;0.10;0.10;;;;;;;;;;5033257;28;20033;-87
2024/03/21 07:25:47;;;;;;;0.20;0.20;;;;;;;;;;5034291;28;20528;-87
2024/03/21 07:28:13;;;;;;;0.17;0.17;;;;;;;;;;5034001;28;20033;-87
2024/03/21 07:30:39;;;;;;;0.10;0.10;;;;;;;;;;5017898;28;20037;-88
2024/03/21 07:33:05;;;;;;;0.10;0.10;;;;;;;;;;5017798;28;20094;-88
2024/03/21 07:35:31;;;;;;;0.10;0.10;;;;;;;;;;5017723;28;20041;-88
2024/03/21 07:37:57;;;;;;;0.10;0.10;;;;;;;;;;5017989;28;20110;-87
2024/03/21 07:40:23;;;;;;;0.10;0.10;;;;;;;;;;5017495;28;20087;-87
2024/03/21 07:42:49;;;;;;;0.25;0.25;;;;;;;;;;5017868;28;20041;-87
2024/03/21 07:45:15;;;;;;;0.20;0.20;;;;;;;;;;5017514;28;20037;-87
2024/03/21 07:47:44;;;;;;;0.10;0.10;;;;;;;;;;5017469;28;20102;-86
2024/03/21 07:50:09;;;;;;;0.20;0.20;;;;;;;;;;5017659;28;20048;-87
2024/03/21 07:52:36;;;;;;;0.10;0.10;;;;;;;;;;5034176;28;20041;-88
2024/03/21 07:55:03;;;;;;;0.10;0.10;;;;;;;;;;5017580;28;20048;-87
2024/03/21 07:57:29;;;;;;;0.10;0.10;;;;;;;;;;5017542;28;20048;-86
2024/03/21 07:59:55;;;;;;;0.20;0.20;;;;;;;;;;5017892;28;20036;-86
2024/03/21 08:02:22;;;;;;;0.10;0.10;;;;;;;;;;5033832;28;20048;-90
2024/03/21 08:04:47;;;;;;;0.10;0.10;;;;;;;;;;5017105;28;20051;-90
2024/03/21 08:07:13;;;;;;;0.20;0.20;;;;;;;;;;5034315;28;20041;-88
2024/03/21 08:09:42;;;;;;;0.20;0.20;;;;;;;;;;5017510;28;20037;-89
2024/03/21 08:12:08;;;;;;;0.10;0.10;;;;;;;;;;5017316;28;20043;-88
2024/03/21 08:14:34;;;;;;;0.10;0.10;;;;;;;;;;5017284;28;20041;-87
2024/03/21 08:17:00;;;;;;;0.10;0.10;;;;;;;;;;5017688;28;20488;-88
2024/03/21 08:19:26;;;;;;;0.10;0.10;;;;;;;;;;5033886;28;20076;-87
2024/03/21 08:21:52;;;;;;;0.20;0.20;;;;;;;;;;5033712;28;20044;-85
2024/03/21 08:24:21;;;;;;;0.10;0.10;;;;;;;;;;5017293;28;20048;-88
2024/03/21 08:26:47;;;;;;;0.10;0.10;;;;;;;;;;5018561;28;20051;-90
2024/03/21 08:29:13;;;;;;;0.10;0.10;;;;;;;;;;5018748;28;20123;-90
2024/03/21 08:31:40;;;;;;;0.10;0.10;;;;;;;;;;5018046;28;20032;-91
2024/03/21 08:34:06;;;;;;;0.10;0.10;;;;;;;;;;5018983;28;20072;-92
2024/03/21 08:36:32;;;;;;;0.10;0.10;;;;;;;;;;5021657;28;20065;-91
2024/03/21 08:38:58;;;;;;;0.10;0.10;;;;;;;;;;5021886;28;20047;-91
2024/03/21 08:41:25;;;;;;;0.10;0.10;;;;;;;;;;5021622;28;20492;-91
2024/03/21 08:43:51;;;;;;;0.10;0.10;;;;;;;;;;5021600;28;20048;-90
2024/03/21 08:46:17;;;;;;;0.10;0.10;;;;;;;;;;5021385;28;20047;-90
2024/03/21 08:48:43;;;;;;;0.10;0.10;;;;;;;;;;5021808;28;20049;-91
2024/03/21 08:51:09;;;;;;;0.10;0.10;;;;;;;;;;5021907;28;20033;-90
2024/03/21 08:53:37;;;;;;;0.10;0.10;;;;;;;;;;5022174;28;20040;-92
2024/03/21 08:56:04;;;;;;;0.10;0.10;;;;;;;;;;5022130;28;20037;-92
2024/03/21 08:58:30;;;;;;;0.10;0.10;;;;;;;;;;5022378;28;20041;-92
2024/03/21 09:00:56;;;;;;;0.10;0.10;;;;;;;;;;5022174;28;20073;-93
2024/03/21 09:03:22;;;;;;;0.43;0.20;;;;;;;;;;5021192;28;20041;-91
2024/03/21 09:05:48;;;;;;;0.10;0.10;;;;;;;;;;5021605;28;20128;-91
2024/03/21 09:08:14;;;;;;;0.10;0.10;;;;;;;;;;5021952;28;20128;-90
2024/03/21 09:10:40;;;;;;;0.10;0.10;;;;;;;;;;5021497;28;20064;-92
2024/03/21 09:13:06;;;;;;;0.20;0.20;;;;;;;;;;5021758;28;20484;-92
2024/03/21 09:15:32;;;;;;;0.10;0.10;;;;;;;;;;5038229;28;20052;-91
2024/03/21 09:17:58;;;;;;;0.10;0.10;;;;;;;;;;5021994;28;20068;-92
2024/03/21 09:20:25;;;;;;;0.10;0.10;;;;;;;;;;5021529;28;20102;-91
2024/03/21 09:22:51;;;;;;;0.10;0.10;;;;;;;;;;5021351;28;20106;-93
2024/03/21 09:25:17;;;;;;;0.10;0.10;;;;;;;;;;5020825;28;20049;-86
2024/03/21 09:27:43;;;;;;;0.10;0.10;;;;;;;;;;5019961;28;20492;-87
2024/03/21 09:30:09;;;;;;;0.10;0.10;;;;;;;;;;5019815;28;20033;-88
2024/03/21 09:32:35;;;;;;;0.10;0.10;;;;;;;;;;5036502;28;20049;-87
2024/03/21 09:35:03;;;;;;;0.20;0.20;;;;;;;;;;5036207;28;20493;-87
2024/03/21 09:37:29;;;;;;;0.10;0.10;;;;;;;;;;5020418;28;20123;-87
2024/03/21 09:39:56;;;;;;;0.50;0.50;;;;;;;;;;5036377;28;20136;-87
2024/03/21 09:42:22;;;;;;;0.10;0.10;;;;;;;;;;5036369;28;20049;-87
2024/03/21 09:44:56;;;;;;;0.10;0.10;;;;;;;;;;5036022;28;20055;-87
2024/03/21 09:47:27;;;;;;;0.40;0.40;;;;;;;;;;5019122;28;20049;-87
2024/03/21 09:49:53;;;;;;;0.32;0.32;;;;;;;;;;5035836;28;20041;-87
2024/03/21 09:52:19;;;;;;;0.10;0.10;;;;;;;;;;5019427;28;20147;-87
2024/03/21 09:54:45;;;;;;;0.10;0.10;;;;;;;;;;5019907;28;20037;-87
2024/03/21 09:57:12;;;;;;;0.10;0.10;;;;;;;;;;5035725;28;20052;-87
2024/03/21 09:59:38;;;;;;;0.17;0.17;;;;;;;;;;5019279;28;20134;-87
2024/03/21 10:02:08;;;;;;;0.10;0.10;;;;;;;;;;5019181;28;20480;-86
2024/03/21 10:04:43;;;;;;;0.10;0.10;;;;;;;;;;5053364;28;20041;-87
2024/03/21 10:07:19;;;;;;;0.10;0.10;;;;;;;;;;5019101;28;20119;-87
2024/03/21 10:09:58;;;;;;;0.20;0.20;;;;;;;;;;5035654;28;20500;-86
2024/03/21 10:12:24;;;;;;;0.10;0.10;;;;;;;;;;5019054;28;20045;-88
2024/03/21 10:14:55;;;;;;;0.10;0.10;;;;;;;;;;5019253;28;20045;-87
2024/03/21 10:17:21;;;;;;;0.10;0.10;;;;;;;;;;5019670;28;20045;-85
2024/03/21 10:19:47;;;;;;;0.10;0.10;;;;;;;;;;5035251;28;20057;-89
2024/03/21 10:22:15;;;;;;;0.10;0.10;;;;;;;;;;5019405;28;20488;-89
2024/03/21 10:24:41;;;;;;;0.10;0.10;;;;;;;;;;5018929;28;20041;-90
2024/03/21 10:27:12;;;;;;;0.17;0.15;;;;;;;;;;5022477;28;20033;-93
2024/03/21 10:29:38;;;;;;;0.10;0.10;;;;;;;;;;5020034;28;20440;-91
2024/03/21 10:32:04;;;;;;;0.10;0.10;;;;;;;;;;5019624;28;20498;-91
2024/03/21 10:34:30;;;;;;;0.10;0.10;;;;;;;;;;5020058;28;20496;-93
2024/03/21 10:36:57;;;;;;;0.10;0.10;;;;;;;;;;5036337;28;20234;-89
2024/03/21 10:39:23;;;;;;;0.30;0.30;;;;;;;;;;5019232;28;20072;-90
2024/03/21 10:41:49;;;;;;;0.10;0.10;;;;;;;;;;5019717;28;20048;-91
2024/03/21 10:44:16;;;;;;;0.20;0.20;;;;;;;;;;5019410;28;20136;-90
2024/03/21 10:46:43;;;;;;;0.10;0.10;;;;;;;;;;5019072;28;20045;-91
2024/03/21 10:49:09;;;;;;;0.10;0.10;;;;;;;;;;5035085;28;20057;-91
2024/03/21 10:51:49;;;;;;;0.10;0.10;;;;;;;;;;5019232;28;20064;-90
2024/03/21 10:54:16;;;;;;;0.10;0.10;;;;;;;;;;5019850;28;20131;-90
2024/03/21 10:56:42;;;;;;;0.20;0.20;;;;;;;;;;5002754;28;20052;-90
2024/03/21 10:59:14;;;;;;;0.10;0.10;;;;;;;;;;5003018;28;20137;-92
2024/03/21 11:01:44;;;;;;;0.10;0.10;;;;;;;;;;5035978;28;20071;-89
2024/03/21 11:04:10;;;;;;;0.10;0.10;;;;;;;;;;5018386;28;20041;-88
2024/03/21 11:06:43;;;;;;;0.10;0.10;;;;;;;;;;5002066;28;20048;-90
2024/03/21 11:09:13;;;;;;;0.20;0.20;;;;;;;;;;5019328;28;20044;-91
2024/03/21 11:11:39;;;;;;;0.32;0.30;;;;;;;;;;5035768;28;20110;-90
2024/03/21 11:14:10;;;;;;;0.10;0.10;;;;;;;;;;5004622;28;20044;-90
2024/03/21 11:16:40;;;;;;;0.10;0.10;;;;;;;;;;5030999;28;20041;-88
2024/03/21 11:19:06;;;;;;;0.10;0.10;;;;;;;;;;5037703;28;20047;-88
2024/03/21 11:21:32;;;;;;;0.10;0.10;;;;;;;;;;5029393;28;20484;-90
2024/03/21 11:23:58;;;;;;;0.10;0.10;;;;;;;;;;5034848;28;20045;-90
2024/03/21 11:26:24;;;;;;;0.10;0.10;;;;;;;;;;5001946;28;20033;-91
2024/03/21 11:28:52;;;;;;;0.10;0.10;;;;;;;;;;5018391;28;20128;-90
2024/03/21 11:31:22;;;;;;;0.20;0.20;;;;;;;;;;5017837;28;20495;-89
2024/03/21 11:33:49;;;;;;;0.20;0.20;;;;;;;;;;5034794;28;20337;-91
2024/03/21 11:36:16;;;;;;;0.10;0.10;;;;;;;;;;5018468;28;20043;-90
2024/03/21 11:38:43;;;;;;;0.10;0.10;;;;;;;;;;5034893;28;20590;-89
2024/03/21 11:41:12;;;;;;;0.10;0.10;;;;;;;;;;5018703;28;20470;-89
2024/03/21 11:43:38;;;;;;;0.25;0.25;;;;;;;;;;5019580;28;20510;-92
2024/03/21 11:46:05;;;;;;;0.10;0.10;;;;;;;;;;5017179;28;20072;-94
2024/03/21 11:48:31;;;;;;;0.10;0.10;;;;;;;;;;5017777;28;20048;-88
2024/03/21 11:50:57;;;;;;;0.10;0.10;;;;;;;;;;5017473;28;20044;-87
2024/03/21 11:53:24;;;;;;;0.13;0.13;;;;;;;;;;5001522;28;20115;-90
2024/03/21 11:55:50;;;;;;;0.10;0.10;;;;;;;;;;5018855;28;20478;-90
2024/03/21 11:58:16;;;;;;;0.10;0.10;;;;;;;;;;5033843;28;20544;-87
2024/03/21 12:00:42;;;;;;;0.10;0.10;;;;;;;;;;5000926;28;20048;-87
2024/03/21 12:03:08;;;;;;;0.10;0.10;;;;;;;;;;5017255;28;20095;-87
2024/03/21 12:05:36;;;;;;;0.10;0.10;;;;;;;;;;5017334;28;20136;-88
2024/03/21 12:08:02;;;;;;;0.10;0.10;;;;;;;;;;5017809;28;20075;-87
2024/03/21 12:10:28;;;;;;;0.10;0.10;;;;;;;;;;5019313;28;20053;-88
2024/03/21 12:12:54;;;;;;;0.20;0.20;;;;;;;;;;5021619;28;20481;-87
2024/03/21 12:15:20;;;;;;;0.10;0.10;;;;;;;;;;5004485;28;20047;-87
2024/03/21 12:17:46;;;;;;;0.10;0.10;;;;;;;;;;5021526;28;20053;-88
2024/03/21 12:20:12;;;;;;;0.10;0.10;;;;;;;;;;5021195;28;20040;-87
2024/03/21 12:22:38;;;;;;;0.10;0.10;;;;;;;;;;5037572;28;20131;-87
2024/03/21 12:25:06;;;;;;;0.10;0.10;;;;;;;;;;5021080;28;20056;-88
2024/03/21 12:27:32;;;;;;;0.20;0.20;;;;;;;;;;5055621;28;20041;-86
2024/03/21 12:29:58;;;;;;;0.10;0.10;;;;;;;;;;5021082;28;20059;-87
2024/03/21 12:32:24;;;;;;;0.10;0.10;;;;;;;;;;5021007;28;20578;-88
2024/03/21 12:34:50;;;;;;;0.10;0.10;;;;;;;;;;5021667;28;20041;-92
2024/03/21 12:37:16;;;;;;;0.10;0.10;;;;;;;;;;5038558;28;20037;-91
2024/03/21 12:39:42;;;;;;;0.10;0.10;;;;;;;;;;5038178;28;20124;-93
2024/03/21 12:42:10;;;;;;;0.17;0.17;;;;;;;;;;5037105;28;20117;-87
2024/03/21 12:44:36;;;;;;;0.50;0.50;;;;;;;;;;5020781;28;20102;-87
2024/03/21 12:47:05;;;;;;;0.10;0.10;;;;;;;;;;5036962;28;20121;-86
2024/03/21 12:49:33;;;;;;;0.10;0.10;;;;;;;;;;5020801;28;20052;-86
2024/03/21 12:51:59;;;;;;;0.10;0.10;;;;;;;;;;5037162;28;20477;-87
2024/03/21 12:54:25;;;;;;;0.68;0.68;;;;;;;;;;5020581;28;20045;-87
2024/03/21 12:56:51;;;;;;;0.10;0.10;;;;;;;;;;5020669;28;20213;-87
2024/03/21 12:59:17;;;;;;;0.10;0.10;;;;;;;;;;5020848;28;20084;-90
2024/03/21 13:01:43;;;;;;;0.10;0.10;;;;;;;;;;5036715;28;20072;-87
2024/03/21 13:04:09;;;;;;;0.10;0.10;;;;;;;;;;5036856;28;20105;-91
2024/03/21 13:06:35;;;;;;;0.20;0.20;;;;;;;;;;5037197;28;20404;-86
2024/03/21 13:09:01;;;;;;;0.10;0.10;;;;;;;;;;5037208;28;20029;-87
2024/03/21 13:11:29;;;;;;;0.10;0.10;;;;;;;;;;5038243;28;20040;-91
2024/03/21 13:13:56;;;;;;;0.10;0.10;;;;;;;;;;5020447;28;20477;-89
2024/03/21 13:16:22;;;;;;;0.10;0.10;;;;;;;;;;5020175;28;20040;-87
2024/03/21 13:18:48;;;;;;;0.10;0.10;;;;;;;;;;5036714;28;20052;-88
2024/03/21 13:21:14;;;;;;;0.10;0.10;;;;;;;;;;5020262;28;20071;-88
2024/03/21 13:23:40;;;;;;;0.10;0.10;;;;;;;;;;5020299;28;20037;-87
2024/03/21 13:26:06;;;;;;;0.10;0.10;;;;;;;;;;5036803;28;20045;-86
2024/03/21 13:28:32;;;;;;;0.10;0.10;;;;;;;;;;5036801;28;20500;-87
2024/03/21 13:30:59;;;;;;;0.10;0.10;;;;;;;;;;5019755;28;20166;-87
2024/03/21 13:33:25;;;;;;;0.10;0.10;;;;;;;;;;5021193;28;20061;-89
2024/03/21 13:35:51;;;;;;;0.10;0.10;;;;;;;;;;5036473;28;20041;-89
2024/03/21 13:38:17;;;;;;;0.10;0.10;;;;;;;;;;5019610;28;20032;-89
2024/03/21 13:40:44;;;;;;;0.10;0.10;;;;;;;;;;5036115;28;20056;-88
2024/03/21 13:43:10;;;;;;;0.20;0.20;;;;;;;;;;5020167;28;20041;-89
2024/03/21 13:45:41;;;;;;;0.10;0.10;;;;;;;;;;5036058;28;20459;-88
2024/03/21 13:48:08;;;;;;;0.10;0.10;;;;;;;;;;5019671;28;20485;-88
2024/03/21 13:50:34;;;;;;;0.10;0.10;;;;;;;;;;5020288;28;20052;-88
2024/03/21 13:53:00;;;;;;;0.20;0.20;;;;;;;;;;5019750;28;20041;-89
2024/03/21 13:55:26;;;;;;;0.10;0.10;;;;;;;;;;5019648;28;20041;-88
2024/03/21 13:57:52;;;;;;;0.30;0.30;;;;;;;;;;5035929;28;20040;-88
2024/03/21 14:00:19;;;;;;;0.10;0.10;;;;;;;;;;5036024;28;20599;-89
2024/03/21 14:02:47;;;;;;;0.10;0.10;;;;;;;;;;5019911;28;20044;-88
2024/03/21 14:05:13;;;;;;;0.10;0.10;;;;;;;;;;5019957;28;20094;-88
2024/03/21 14:07:44;;;;;;;0.20;0.20;;;;;;;;;;5019659;28;20036;-88
2024/03/21 14:10:10;;;;;;;0.10;0.10;;;;;;;;;;5035642;28;20052;-89
2024/03/21 14:12:36;;;;;;;0.10;0.10;;;;;;;;;;5019171;28;20037;-88
2024/03/21 14:15:02;;;;;;;0.10;0.10;;;;;;;;;;5019459;28;20055;-88
2024/03/21 14:17:32;;;;;;;0.10;0.10;;;;;;;;;;5035670;28;20106;-88
2024/03/21 14:19:59;;;;;;;0.10;0.10;;;;;;;;;;5019597;28;20040;-89
2024/03/21 14:22:24;;;;;;;0.20;0.20;;;;;;;;;;5019328;28;20033;-88
2024/03/21 14:24:50;;;;;;;0.10;0.10;;;;;;;;;;5035673;28;20378;-89
2024/03/21 14:27:16;;;;;;;0.43;0.30;;;;;;;;;;5035661;28;20033;-89
2024/03/21 14:29:43;;;;;;;0.10;0.10;;;;;;;;;;5035779;28;20033;-89
2024/03/21 14:32:09;;;;;;;0.10;0.10;;;;;;;;;;5035221;28;20040;-88
2024/03/21 14:34:35;;;;;;;0.10;0.10;;;;;;;;;;5019108;28;20056;-89
2024/03/21 14:37:01;;;;;;;0.20;0.20;;;;;;;;;;5035858;28;20405;-88
2024/03/21 14:39:27;;;;;;;0.10;0.10;;;;;;;;;;5053824;28;20497;-89
2024/03/21 14:41:57;;;;;;;0.10;0.10;;;;;;;;;;5020066;28;20052;-89